aviador You're here:

K27K Decoded Metar

in
Report Time2017-12-17 07:55:00
UTC Time2017-12-17 08:07:44
Flight Rules vfr VFR
Wind210° at 06 kt
Visibility9999 m
Phenomena:N/A
Clouds:N/A
Expected CloudBase > 1,600 ft AGL from Temp-Dew spread
CeilingNone
Temp03°C
Dew Point-1°C (75% RH)
AAT-1.3°C
QNH1023 hPa
Raw Report
K27K 170755Z AUTO 21006KT 10SM CLR 03/M01 A3020 RMK AO1=

Extra information for K27K:More info

Social comments